createdAt,value
2022-08-30T00:01:14.323Z,9.15
2022-08-30T00:03:47.827Z,9.32
2022-08-30T00:06:18.029Z,9.10
2022-08-30T00:08:46.510Z,11.68
2022-08-30T00:11:16.325Z,8.85
2022-08-30T00:13:48.080Z,9.00
2022-08-30T00:16:21.358Z,9.13
2022-08-30T00:18:49.274Z,9.27
2022-08-30T00:21:16.464Z,10.60
2022-08-30T00:23:43.734Z,9.57
2022-08-30T00:26:10.954Z,8.98
2022-08-30T00:28:38.108Z,12.10
2022-08-30T00:31:06.228Z,9.02
2022-08-30T00:33:35.794Z,8.10
2022-08-30T00:36:03.283Z,8.38
2022-08-30T00:38:30.519Z,9.23
2022-08-30T00:40:59.873Z,8.80
2022-08-30T00:43:30.108Z,8.45
2022-08-30T00:45:58.252Z,8.50
2022-08-30T00:48:25.619Z,9.18
2022-08-30T00:50:57.347Z,9.30
2022-08-30T00:53:30.885Z,8.48
2022-08-30T00:55:59.605Z,8.15
2022-08-30T00:58:37.176Z,9.20
2022-08-30T01:01:08.316Z,7.75
2022-08-30T01:03:36.984Z,9.43
2022-08-30T01:06:05.519Z,9.93
2022-08-30T01:08:32.744Z,7.95
2022-08-30T01:11:00.968Z,7.97
2022-08-30T01:13:28.490Z,9.90
2022-08-30T01:15:56.113Z,7.53
2022-08-30T01:18:24.250Z,9.18
2022-08-30T01:21:16.520Z,11.50
2022-08-30T01:23:45.956Z,8.02
2022-08-30T01:26:15.931Z,7.53
2022-08-30T01:28:46.639Z,10.00
2022-08-30T01:31:14.387Z,8.43
2022-08-30T01:33:44.195Z,8.52
2022-08-30T01:36:13.986Z,7.57
2022-08-30T01:38:48.805Z,8.77
2022-08-30T01:41:28.562Z,7.35
2022-08-30T01:43:58.984Z,7.45
2022-08-30T01:46:29.843Z,7.28
2022-08-30T01:48:59.484Z,7.47
2022-08-30T01:51:29.266Z,8.23
2022-08-30T01:53:57.610Z,9.02
2022-08-30T01:56:26.211Z,8.48
2022-08-30T01:58:53.864Z,7.50
2022-08-30T02:01:24.777Z,7.15
2022-08-30T02:03:55.138Z,7.47
2022-08-30T02:06:23.980Z,7.78
2022-08-30T02:08:51.056Z,7.55
2022-08-30T02:11:18.349Z,8.20
2022-08-30T02:13:46.189Z,8.48
2022-08-30T02:16:17.040Z,9.57
2022-08-30T02:18:44.804Z,10.32
2022-08-30T02:21:13.231Z,8.07
2022-08-30T02:23:41.884Z,8.85
2022-08-30T02:26:10.645Z,8.57
2022-08-30T02:28:42.928Z,7.93
2022-08-30T02:31:20.270Z,7.88
2022-08-30T02:33:50.481Z,8.35
2022-08-30T02:36:19.242Z,7.80
2022-08-30T02:38:47.301Z,9.18
2022-08-30T02:41:15.024Z,8.13
2022-08-30T02:43:42.197Z,10.23
2022-08-30T02:46:09.432Z,8.02
2022-08-30T02:48:36.980Z,8.30
2022-08-30T02:51:11.740Z,9.68
2022-08-30T02:53:40.622Z,8.93
2022-08-30T02:56:11.840Z,8.20
2022-08-30T02:58:40.155Z,9.13
2022-08-30T03:01:07.467Z,9.13
2022-08-30T03:03:34.865Z,8.82
2022-08-30T03:06:03.592Z,7.95
2022-08-30T03:08:31.955Z,9.68
2022-08-30T03:11:00.226Z,9.45
2022-08-30T03:13:27.635Z,7.90
2022-08-30T03:15:54.896Z,9.75
2022-08-30T03:18:22.225Z,8.52
2022-08-30T03:20:54.656Z,10.52
2022-08-30T03:23:24.216Z,11.50
2022-08-30T03:25:52.154Z,9.07
2022-08-30T03:28:19.414Z,9.63
2022-08-30T03:30:48.179Z,8.90
2022-08-30T03:33:15.376Z,8.88
2022-08-30T03:35:42.814Z,9.90
2022-08-30T03:38:09.940Z,11.60
2022-08-30T03:40:37.396Z,11.20
2022-08-30T03:43:05.414Z,12.27
2022-08-30T03:45:32.793Z,12.27
2022-08-30T03:48:00.007Z,11.63
2022-08-30T03:50:27.145Z,8.18
2022-08-30T03:52:54.406Z,8.70
2022-08-30T03:55:21.633Z,8.10
2022-08-30T03:57:48.955Z,9.32
2022-08-30T04:00:19.759Z,6.90
2022-08-30T04:02:46.790Z,8.05
2022-08-30T04:05:14.804Z,6.93
2022-08-30T04:07:46.071Z,7.03
2022-08-30T04:10:13.232Z,7.20
2022-08-30T04:12:42.552Z,7.55
2022-08-30T04:15:12.732Z,6.60
2022-08-30T04:17:40.391Z,7.32
2022-08-30T04:20:08.171Z,11.35
2022-08-30T04:22:35.550Z,5.68
2022-08-30T04:25:03.230Z,5.05
2022-08-30T04:27:30.329Z,5.00
2022-08-30T04:29:58.730Z,4.85
2022-08-30T04:32:26.009Z,5.97
2022-08-30T04:34:58.015Z,5.22
2022-08-30T04:37:25.377Z,6.00
2022-08-30T04:39:57.834Z,5.28
2022-08-30T04:42:24.999Z,4.97
2022-08-30T04:44:52.146Z,4.72
2022-08-30T04:47:19.229Z,5.35
2022-08-30T04:49:46.309Z,5.32
2022-08-30T04:52:13.396Z,5.05
2022-08-30T04:54:40.910Z,4.95
2022-08-30T04:57:08.046Z,5.43
2022-08-30T04:59:35.081Z,4.20
2022-08-30T05:02:02.460Z,4.75
2022-08-30T05:04:29.715Z,4.57
2022-08-30T05:06:56.890Z,4.72
2022-08-30T05:09:24.149Z,5.57
2022-08-30T05:11:51.935Z,3.88
2022-08-30T05:14:19.124Z,5.53
2022-08-30T05:16:46.542Z,4.07
2022-08-30T05:19:14.319Z,5.05
2022-08-30T05:21:41.453Z,4.50
2022-08-30T05:24:08.705Z,3.90
2022-08-30T05:26:40.942Z,4.28
2022-08-30T05:29:08.073Z,3.45
2022-08-30T05:31:36.694Z,4.22
2022-08-30T05:34:04.825Z,7.57
2022-08-30T05:36:35.242Z,4.80
2022-08-30T05:39:02.554Z,3.35
2022-08-30T05:41:33.549Z,3.50
2022-08-30T05:44:02.776Z,5.13
2022-08-30T05:49:04.820Z,5.60
2022-08-30T05:51:35.485Z,5.75
2022-08-30T05:54:02.724Z,6.70
2022-08-30T05:56:33.753Z,6.60
2022-08-30T05:59:02.244Z,5.50
2022-08-30T06:01:33.173Z,6.03
2022-08-30T06:04:03.920Z,3.80
2022-08-30T06:06:33.121Z,4.35
2022-08-30T06:09:00.195Z,5.53
2022-08-30T06:11:28.374Z,3.72
2022-08-30T06:13:56.164Z,4.30
2022-08-30T06:16:25.846Z,4.85
2022-08-30T06:18:57.499Z,5.82
2022-08-30T06:21:30.644Z,5.65
2022-08-30T06:23:59.055Z,6.22
2022-08-30T06:26:27.330Z,5.03
2022-08-30T06:28:55.685Z,5.30
2022-08-30T06:31:24.574Z,5.88
2022-08-30T06:33:53.089Z,7.28
2022-08-30T06:36:24.389Z,8.15
2022-08-30T06:38:56.989Z,5.15
2022-08-30T06:41:27.835Z,4.68
2022-08-30T06:43:55.614Z,5.85
2022-08-30T06:46:28.762Z,4.05
2022-08-30T06:48:57.255Z,5.40
2022-08-30T06:51:28.484Z,6.32
2022-08-30T06:53:57.336Z,5.50
2022-08-30T06:56:27.412Z,4.15
2022-08-30T06:58:54.965Z,5.32
2022-08-30T07:01:25.562Z,4.20
2022-08-30T07:03:53.834Z,4.00
2022-08-30T07:06:21.484Z,4.65
2022-08-30T07:08:50.795Z,5.25
2022-08-30T07:11:32.105Z,3.78
2022-08-30T07:14:02.908Z,5.32
2022-08-30T07:16:30.155Z,3.95
2022-08-30T07:19:00.290Z,6.03
2022-08-30T07:21:33.682Z,5.88
2022-08-30T07:24:01.310Z,5.50
2022-08-30T07:26:33.050Z,5.75
2022-08-30T07:29:01.200Z,7.32
2022-08-30T07:31:29.271Z,3.13
2022-08-30T07:33:59.550Z,5.40
2022-08-30T07:36:26.754Z,5.55
2022-08-30T07:38:57.591Z,7.03
2022-08-30T07:41:27.583Z,4.85
2022-08-30T07:43:55.263Z,3.90
2022-08-30T07:46:26.362Z,3.17
2022-08-30T07:48:56.875Z,4.32
2022-08-30T07:51:26.152Z,4.32
2022-08-30T07:53:54.375Z,5.93
2022-08-30T07:56:22.255Z,3.60
2022-08-30T07:58:52.056Z,5.90
2022-08-30T08:01:20.822Z,5.22
2022-08-30T08:03:50.468Z,3.70
2022-08-30T08:06:20.999Z,4.22
2022-08-30T08:08:48.640Z,10.30
2022-08-30T08:11:23.361Z,5.28
2022-08-30T08:13:53.997Z,4.20
2022-08-30T08:16:29.449Z,3.00
2022-08-30T08:18:57.110Z,4.03
2022-08-30T08:21:25.351Z,3.83
2022-08-30T08:23:53.870Z,4.18
2022-08-30T08:26:21.737Z,6.20
2022-08-30T08:28:49.705Z,6.32
2022-08-30T08:31:27.204Z,5.75
2022-08-30T08:36:30.474Z,6.18
2022-08-30T08:38:58.760Z,4.78
2022-08-30T08:41:54.015Z,4.57
2022-08-30T08:45:10.806Z,5.38
2022-08-30T08:47:57.556Z,6.30
2022-08-30T08:50:29.900Z,4.60
2022-08-30T08:53:46.018Z,5.53
2022-08-30T08:56:18.639Z,4.82
2022-08-30T08:58:49.342Z,4.68
2022-08-30T09:01:18.914Z,3.95
2022-08-30T09:03:46.980Z,3.67
2022-08-30T09:06:37.795Z,4.22
2022-08-30T09:09:09.439Z,5.53
2022-08-30T09:11:37.896Z,5.20
2022-08-30T09:14:17.596Z,5.00
2022-08-30T09:17:02.885Z,4.65
2022-08-30T09:22:28.055Z,7.00
2022-08-30T09:25:11.044Z,5.50
2022-08-30T09:27:44.005Z,8.10
2022-08-30T09:30:31.862Z,4.53
2022-08-30T09:33:02.599Z,4.75
2022-08-30T09:35:44.535Z,7.72
2022-08-30T09:38:23.556Z,5.25
2022-08-30T09:40:57.055Z,5.25
2022-08-30T09:43:33.220Z,4.22
2022-08-30T09:46:03.474Z,4.43
2022-08-30T09:48:33.734Z,6.28
2022-08-30T09:51:11.560Z,4.18
2022-08-30T09:54:01.111Z,4.72
2022-08-30T09:56:53.856Z,4.30
2022-08-30T10:00:02.337Z,5.90
2022-08-30T10:02:47.344Z,4.93
2022-08-30T10:05:20.269Z,4.35
2022-08-30T10:08:06.216Z,6.07
2022-08-30T10:10:47.842Z,4.30
2022-08-30T10:13:47.321Z,5.30
2022-08-30T10:16:34.846Z,6.47
2022-08-30T10:19:43.535Z,5.28
2022-08-30T10:22:19.544Z,6.65
2022-08-30T10:24:58.530Z,5.05
2022-08-30T10:27:32.435Z,5.35
2022-08-30T10:30:14.016Z,6.20
2022-08-30T10:32:50.300Z,6.40
2022-08-30T10:35:24.820Z,5.75
2022-08-30T10:38:04.964Z,5.18
2022-08-30T10:40:54.540Z,5.07
2022-08-30T10:43:40.424Z,5.80
2022-08-30T10:46:30.634Z,5.45
2022-08-30T10:49:01.709Z,5.70
2022-08-30T10:51:37.319Z,6.68
2022-08-30T10:54:13.987Z,4.40
2022-08-30T10:56:49.725Z,4.53
2022-08-30T10:59:21.414Z,4.88
2022-08-30T11:02:18.791Z,6.05
2022-08-30T11:05:21.779Z,5.25
2022-08-30T11:08:20.434Z,5.22
2022-08-30T11:11:32.859Z,6.18
2022-08-30T11:14:05.792Z,5.78
2022-08-30T11:16:43.235Z,5.82
2022-08-30T11:19:37.122Z,5.90
2022-08-30T11:22:17.295Z,5.80
2022-08-30T11:25:38.788Z,5.10
2022-08-30T11:28:09.184Z,5.45
2022-08-30T11:30:39.255Z,5.13
2022-08-30T11:33:42.261Z,4.47
2022-08-30T11:39:52.304Z,7.32
2022-08-30T11:42:37.989Z,8.15
2022-08-30T11:45:29.697Z,4.40
2022-08-30T11:48:00.021Z,5.53
2022-08-30T11:50:48.165Z,6.13
2022-08-30T11:53:29.147Z,4.85
2022-08-30T11:56:41.595Z,4.95
2022-08-30T11:59:26.179Z,7.15
2022-08-30T12:01:53.594Z,4.10
2022-08-30T12:04:20.719Z,5.05
2022-08-30T12:06:59.959Z,4.55
2022-08-30T12:09:27.028Z,5.63
2022-08-30T12:12:04.404Z,4.40
2022-08-30T12:15:01.610Z,7.38
2022-08-30T12:18:15.307Z,5.40
2022-08-30T12:20:48.893Z,6.05
2022-08-30T12:23:54.262Z,6.57
2022-08-30T12:26:25.129Z,4.97
2022-08-30T12:29:15.955Z,4.93
2022-08-30T12:32:03.486Z,4.93
2022-08-30T12:34:41.432Z,7.00
2022-08-30T12:37:10.974Z,7.90
2022-08-30T12:39:42.538Z,6.03
2022-08-30T12:42:27.063Z,7.10
2022-08-30T12:44:58.734Z,5.93
2022-08-30T12:47:47.659Z,4.82
2022-08-30T12:50:21.785Z,4.80
2022-08-30T12:53:05.175Z,6.63
2022-08-30T12:55:35.849Z,4.80
2022-08-30T12:58:10.932Z,5.03
2022-08-30T13:00:43.250Z,4.97
2022-08-30T13:03:38.139Z,7.07
2022-08-30T13:06:08.120Z,6.72
2022-08-30T13:08:42.964Z,6.53
2022-08-30T13:11:23.125Z,6.22
2022-08-30T13:13:53.128Z,6.63
2022-08-30T13:16:23.066Z,8.35
2022-08-30T13:18:55.334Z,5.55
2022-08-30T13:21:33.663Z,5.70
2022-08-30T13:24:06.120Z,7.43
2022-08-30T13:26:38.108Z,4.45
2022-08-30T13:29:14.239Z,22.63
2022-08-30T13:31:41.293Z,8.00
2022-08-30T13:34:08.393Z,7.07
2022-08-30T13:36:38.180Z,5.38
2022-08-30T13:39:06.447Z,5.75
2022-08-30T13:41:34.481Z,6.57
2022-08-30T13:44:20.213Z,6.57
2022-08-30T13:46:54.623Z,5.65
2022-08-30T13:52:21.726Z,7.45
2022-08-30T13:54:54.474Z,6.30
2022-08-30T14:00:19.278Z,6.80
2022-08-30T14:02:54.846Z,5.75
2022-08-30T14:11:02.189Z,6.30
2022-08-30T14:13:29.738Z,5.75
2022-08-30T14:18:47.034Z,7.38
2022-08-30T14:21:14.069Z,8.98
2022-08-30T14:23:41.069Z,8.13
2022-08-30T14:26:18.809Z,9.25
2022-08-30T14:28:46.154Z,6.35
2022-08-30T14:31:19.933Z,6.28
2022-08-30T14:33:47.638Z,8.27
2022-08-30T14:36:15.411Z,11.70
2022-08-30T14:38:45.000Z,6.40
2022-08-30T14:41:12.049Z,9.38
2022-08-30T14:43:41.259Z,8.38
2022-08-30T14:46:10.047Z,7.88
2022-08-30T14:48:38.894Z,7.00
2022-08-30T14:51:19.024Z,6.80
2022-08-30T14:53:47.149Z,7.28
2022-08-30T14:56:17.005Z,8.23
2022-08-30T14:58:51.664Z,9.10
2022-08-30T15:01:20.041Z,7.05
2022-08-30T15:03:47.309Z,11.40
2022-08-30T15:06:14.679Z,7.30
2022-08-30T15:08:43.210Z,6.53
2022-08-30T15:11:17.445Z,8.73
2022-08-30T15:13:44.879Z,8.13
2022-08-30T15:16:18.950Z,10.52
2022-08-30T15:18:46.684Z,7.80
2022-08-30T15:21:13.895Z,11.05
2022-08-30T15:23:42.113Z,9.95
2022-08-30T15:26:09.463Z,9.15
2022-08-30T15:28:37.104Z,9.10
2022-08-30T15:31:08.566Z,10.02
2022-08-30T15:33:37.391Z,8.52
2022-08-30T15:36:05.880Z,8.90
2022-08-30T15:38:33.344Z,8.50
2022-08-30T15:41:04.347Z,7.28
2022-08-30T15:43:31.909Z,6.35
2022-08-30T15:46:17.565Z,10.02
2022-08-30T15:48:46.284Z,7.10
2022-08-30T15:51:13.675Z,12.65
2022-08-30T15:53:41.071Z,11.90
2022-08-30T15:56:08.186Z,6.55
2022-08-30T15:58:35.641Z,7.43
2022-08-30T16:01:05.051Z,8.32
2022-08-30T16:03:33.799Z,8.82
2022-08-30T16:06:01.299Z,11.18
2022-08-30T16:08:29.669Z,12.23
2022-08-30T16:10:56.955Z,12.48
2022-08-30T16:13:24.739Z,10.25
2022-08-30T16:15:51.837Z,9.75
2022-08-30T16:18:18.990Z,10.10
2022-08-30T16:20:46.120Z,8.40
2022-08-30T16:23:13.192Z,8.27
2022-08-30T16:25:41.235Z,8.70
2022-08-30T16:28:09.538Z,11.45
2022-08-30T16:30:37.049Z,8.80
2022-08-30T16:33:04.295Z,8.30
2022-08-30T16:35:33.115Z,10.07
2022-08-30T16:38:00.184Z,11.15
2022-08-30T16:40:27.565Z,11.70
2022-08-30T16:42:54.615Z,11.63
2022-08-30T16:45:21.628Z,12.05
2022-08-30T16:47:51.154Z,8.77
2022-08-30T16:50:21.559Z,8.13
2022-08-30T16:52:48.924Z,9.93
2022-08-30T16:55:16.499Z,10.40
2022-08-30T16:57:44.029Z,8.77
2022-08-30T17:00:12.990Z,7.05
2022-08-30T17:02:40.955Z,9.93
2022-08-30T17:05:15.184Z,9.13
2022-08-30T17:07:44.694Z,9.00
2022-08-30T17:10:13.297Z,8.65
2022-08-30T17:12:40.494Z,6.20
2022-08-30T17:15:10.864Z,7.53
2022-08-30T17:17:38.190Z,7.97
2022-08-30T17:20:10.606Z,13.80
2022-08-30T17:22:37.691Z,17.60
2022-08-30T17:25:07.634Z,13.10
2022-08-30T17:27:34.749Z,19.85
2022-08-30T17:30:02.316Z,17.52
2022-08-30T17:32:29.909Z,19.25
2022-08-30T17:34:56.932Z,17.65
2022-08-30T17:37:24.585Z,11.88
2022-08-30T17:39:52.204Z,11.05
2022-08-30T17:42:19.312Z,16.95
2022-08-30T17:44:46.341Z,12.05
2022-08-30T17:47:13.539Z,13.98
2022-08-30T17:49:41.004Z,14.98
2022-08-30T17:52:08.124Z,11.02
2022-08-30T17:54:39.094Z,13.95
2022-08-30T17:57:10.816Z,15.23
2022-08-30T17:59:39.284Z,16.75
2022-08-30T18:02:07.106Z,14.25
2022-08-30T18:04:38.964Z,16.45
2022-08-30T18:07:09.125Z,16.33
2022-08-30T18:09:40.353Z,15.07
2022-08-30T18:12:07.704Z,13.18
2022-08-30T18:14:34.891Z,18.40
2022-08-30T18:17:05.681Z,11.80
2022-08-30T18:19:33.169Z,11.43
2022-08-30T18:22:03.294Z,10.20
2022-08-30T18:24:31.465Z,14.43
2022-08-30T18:26:58.670Z,6.68
2022-08-30T18:29:29.298Z,8.93
2022-08-30T18:32:03.053Z,8.77
2022-08-30T18:34:30.964Z,9.00
2022-08-30T18:36:58.629Z,9.63
2022-08-30T18:39:25.919Z,9.63
2022-08-30T18:41:55.554Z,8.13
2022-08-30T18:44:29.084Z,10.85
2022-08-30T18:47:00.365Z,11.02
2022-08-30T18:49:32.344Z,9.95
2022-08-30T18:52:00.584Z,10.80
2022-08-30T18:54:27.794Z,10.15
2022-08-30T18:56:55.224Z,10.77
2022-08-30T18:59:22.276Z,10.23
2022-08-30T19:01:49.787Z,9.25
2022-08-30T19:04:30.079Z,8.05
2022-08-30T19:07:02.953Z,6.80
2022-08-30T19:09:29.961Z,8.23
2022-08-30T19:11:57.285Z,10.15
2022-08-30T19:14:24.525Z,8.68
2022-08-30T19:16:56.635Z,10.82
2022-08-30T19:19:23.981Z,11.25
2022-08-30T19:21:51.954Z,9.57
2022-08-30T19:24:20.544Z,9.95
2022-08-30T19:26:48.694Z,10.75
2022-08-30T19:29:16.050Z,15.10
2022-08-30T19:31:43.985Z,11.95
2022-08-30T19:34:13.794Z,12.52
2022-08-30T19:36:44.060Z,11.95
2022-08-30T19:39:12.028Z,11.43
2022-08-30T19:41:39.160Z,11.95
2022-08-30T19:44:07.209Z,13.50
2022-08-30T19:46:34.324Z,12.27
2022-08-30T19:49:04.340Z,13.77
2022-08-30T19:51:31.591Z,13.48
2022-08-30T19:54:00.686Z,13.18
2022-08-30T19:56:27.860Z,12.93
2022-08-30T19:58:55.036Z,12.23
2022-08-30T20:01:32.485Z,10.43
2022-08-30T20:04:02.137Z,12.40
2022-08-30T20:06:32.465Z,10.82
2022-08-30T20:09:00.703Z,9.65
2022-08-30T20:11:30.314Z,12.00
2022-08-30T20:13:58.245Z,11.73
2022-08-30T20:16:35.470Z,11.93
2022-08-30T20:19:06.434Z,10.63
2022-08-30T20:21:33.973Z,14.85
2022-08-30T20:24:01.306Z,12.45
2022-08-30T20:26:33.984Z,13.18
2022-08-30T20:29:02.677Z,12.68
2022-08-30T20:31:30.035Z,10.93
2022-08-30T20:33:57.255Z,12.35
2022-08-30T20:36:24.360Z,14.82
2022-08-30T20:38:51.460Z,12.13
2022-08-30T20:41:19.220Z,12.85
2022-08-30T20:43:47.101Z,12.00
2022-08-30T20:46:16.990Z,11.55
2022-08-30T20:48:44.680Z,10.38
2022-08-30T20:51:15.540Z,12.15
2022-08-30T20:53:43.214Z,11.65
2022-08-30T20:56:19.902Z,11.43
2022-08-30T20:58:46.976Z,13.27
2022-08-30T21:01:16.008Z,15.63
2022-08-30T21:03:45.089Z,17.35
2022-08-30T21:06:12.311Z,11.75
2022-08-30T21:08:39.992Z,11.88
2022-08-30T21:11:07.473Z,13.32
2022-08-30T21:13:34.976Z,13.27
2022-08-30T21:16:03.785Z,14.68
2022-08-30T21:18:34.094Z,15.57
2022-08-30T21:21:11.971Z,15.75
2022-08-30T21:23:39.380Z,16.63
2022-08-30T21:26:07.605Z,15.40
2022-08-30T21:28:34.898Z,14.75
2022-08-30T21:31:08.482Z,14.82
2022-08-30T21:33:36.150Z,15.85
2022-08-30T21:36:22.541Z,19.25
2022-08-30T21:38:49.764Z,14.15
2022-08-30T21:41:16.860Z,16.25
2022-08-30T21:43:44.185Z,16.02
2022-08-30T21:46:11.401Z,16.50
2022-08-30T21:48:38.495Z,13.57
2022-08-30T21:51:10.965Z,13.23
2022-08-30T21:53:38.456Z,16.00
2022-08-30T21:56:21.389Z,14.35
2022-08-30T21:58:49.711Z,15.85
2022-08-30T22:01:23.602Z,13.90
2022-08-30T22:03:56.176Z,16.98
2022-08-30T22:06:25.216Z,13.55
2022-08-30T22:08:59.484Z,13.82
2022-08-30T22:11:27.548Z,16.33
2022-08-30T22:13:55.576Z,17.48
2022-08-30T22:16:23.240Z,14.23
2022-08-30T22:18:50.646Z,14.23
2022-08-30T22:21:21.535Z,14.35
2022-08-30T22:23:48.747Z,16.05
2022-08-30T22:26:17.902Z,15.00
2022-08-30T22:28:45.116Z,14.73
2022-08-30T22:31:14.260Z,18.08
2022-08-30T22:33:41.691Z,13.68
2022-08-30T22:36:12.635Z,17.63
2022-08-30T22:38:40.329Z,16.58
2022-08-30T22:41:17.790Z,15.30
2022-08-30T22:43:45.191Z,14.57
2022-08-30T22:46:12.367Z,13.55
2022-08-30T22:48:41.910Z,12.65
2022-08-30T22:51:10.358Z,14.70
2022-08-30T22:53:37.380Z,13.32
2022-08-30T22:56:14.952Z,12.52
2022-08-30T22:58:45.530Z,12.70
2022-08-30T23:01:25.896Z,12.55
2022-08-30T23:03:53.496Z,13.75
2022-08-30T23:06:20.571Z,13.43
2022-08-30T23:08:48.251Z,12.45
2022-08-30T23:11:16.021Z,15.63
2022-08-30T23:13:44.366Z,13.98
2022-08-30T23:16:13.031Z,13.68
2022-08-30T23:18:43.031Z,11.50
2022-08-30T23:21:24.956Z,11.48
2022-08-30T23:24:11.846Z,12.18
2022-08-30T23:26:57.791Z,14.15
2022-08-30T23:29:43.800Z,12.30
2022-08-30T23:32:30.036Z,12.95
2022-08-30T23:35:15.695Z,13.48
2022-08-30T23:40:46.355Z,16.75
2022-08-30T23:43:32.336Z,12.43
2022-08-30T23:46:19.279Z,11.43
2022-08-30T23:49:06.299Z,14.27
2022-08-30T23:51:52.196Z,13.88
2022-08-30T23:54:37.837Z,15.02
